sensor_id;sensor_type;location;lat;lon;timestamp;P1;durP1;ratioP1;P2;durP2;ratioP2
34765;SDS011;20984;43.508;1.504;2022-08-25T00:01:33;3.28;;;1.52;;
34765;SDS011;20984;43.508;1.504;2022-08-25T00:04:02;4.45;;;1.50;;
34765;SDS011;20984;43.508;1.504;2022-08-25T00:06:31;3.15;;;1.48;;
34765;SDS011;20984;43.508;1.504;2022-08-25T00:08:57;3.78;;;1.52;;
34765;SDS011;20984;43.508;1.504;2022-08-25T00:11:24;2.28;;;1.27;;
34765;SDS011;20984;43.508;1.504;2022-08-25T00:13:54;4.63;;;1.60;;
34765;SDS011;20984;43.508;1.504;2022-08-25T00:16:23;2.40;;;1.42;;
34765;SDS011;20984;43.508;1.504;2022-08-25T00:18:51;3.35;;;1.55;;
34765;SDS011;20984;43.508;1.504;2022-08-25T00:21:19;2.63;;;1.35;;
34765;SDS011;20984;43.508;1.504;2022-08-25T00:23:46;2.33;;;1.63;;
34765;SDS011;20984;43.508;1.504;2022-08-25T00:26:12;4.78;;;1.30;;
34765;SDS011;20984;43.508;1.504;2022-08-25T00:28:39;4.05;;;1.70;;
34765;SDS011;20984;43.508;1.504;2022-08-25T00:31:06;2.60;;;1.60;;
34765;SDS011;20984;43.508;1.504;2022-08-25T00:33:46;3.75;;;1.60;;
34765;SDS011;20984;43.508;1.504;2022-08-25T00:36:14;2.85;;;1.73;;
34765;SDS011;20984;43.508;1.504;2022-08-25T00:38:42;6.55;;;1.33;;
34765;SDS011;20984;43.508;1.504;2022-08-25T00:41:10;3.85;;;1.60;;
34765;SDS011;20984;43.508;1.504;2022-08-25T00:46:10;5.05;;;1.60;;
34765;SDS011;20984;43.508;1.504;2022-08-25T00:48:42;4.65;;;1.50;;
34765;SDS011;20984;43.508;1.504;2022-08-25T00:51:10;4.53;;;1.50;;
34765;SDS011;20984;43.508;1.504;2022-08-25T00:53:41;2.45;;;1.30;;
34765;SDS011;20984;43.508;1.504;2022-08-25T00:56:08;3.85;;;1.67;;
34765;SDS011;20984;43.508;1.504;2022-08-25T00:58:36;8.60;;;1.80;;
34765;SDS011;20984;43.508;1.504;2022-08-25T01:01:02;2.83;;;1.50;;
34765;SDS011;20984;43.508;1.504;2022-08-25T01:03:29;4.47;;;1.83;;
34765;SDS011;20984;43.508;1.504;2022-08-25T01:05:57;7.35;;;1.77;;
34765;SDS011;20984;43.508;1.504;2022-08-25T01:08:25;3.40;;;1.30;;
34765;SDS011;20984;43.508;1.504;2022-08-25T01:10:53;2.65;;;1.75;;
34765;SDS011;20984;43.508;1.504;2022-08-25T01:13:25;2.58;;;1.50;;
34765;SDS011;20984;43.508;1.504;2022-08-25T01:15:56;3.53;;;2.05;;
34765;SDS011;20984;43.508;1.504;2022-08-25T01:18:23;4.05;;;1.73;;
34765;SDS011;20984;43.508;1.504;2022-08-25T01:20:51;5.07;;;1.70;;
34765;SDS011;20984;43.508;1.504;2022-08-25T01:23:21;2.40;;;1.63;;
34765;SDS011;20984;43.508;1.504;2022-08-25T01:25:55;8.35;;;2.40;;
34765;SDS011;20984;43.508;1.504;2022-08-25T01:28:31;3.17;;;1.60;;
34765;SDS011;20984;43.508;1.504;2022-08-25T01:30:58;3.70;;;1.77;;
34765;SDS011;20984;43.508;1.504;2022-08-25T01:33:24;4.03;;;1.45;;
34765;SDS011;20984;43.508;1.504;2022-08-25T01:35:50;2.45;;;1.23;;
34765;SDS011;20984;43.508;1.504;2022-08-25T01:38:16;2.47;;;1.50;;
34765;SDS011;20984;43.508;1.504;2022-08-25T01:40:43;6.10;;;2.05;;
34765;SDS011;20984;43.508;1.504;2022-08-25T01:45:46;6.93;;;2.00;;
34765;SDS011;20984;43.508;1.504;2022-08-25T01:48:13;3.30;;;1.65;;
34765;SDS011;20984;43.508;1.504;2022-08-25T01:50:39;2.75;;;1.98;;
34765;SDS011;20984;43.508;1.504;2022-08-25T01:53:16;5.85;;;1.80;;
34765;SDS011;20984;43.508;1.504;2022-08-25T01:55:42;3.63;;;1.85;;
34765;SDS011;20984;43.508;1.504;2022-08-25T01:58:19;4.45;;;1.70;;
34765;SDS011;20984;43.508;1.504;2022-08-25T02:00:48;4.47;;;2.22;;
34765;SDS011;20984;43.508;1.504;2022-08-25T02:03:15;2.55;;;1.70;;
34765;SDS011;20984;43.508;1.504;2022-08-25T02:05:45;2.93;;;1.80;;
34765;SDS011;20984;43.508;1.504;2022-08-25T02:08:11;2.75;;;1.67;;
34765;SDS011;20984;43.508;1.504;2022-08-25T02:10:38;5.72;;;1.98;;
34765;SDS011;20984;43.508;1.504;2022-08-25T02:13:05;4.70;;;2.00;;
34765;SDS011;20984;43.508;1.504;2022-08-25T02:15:32;6.60;;;2.08;;
34765;SDS011;20984;43.508;1.504;2022-08-25T02:17:58;3.42;;;1.70;;
34765;SDS011;20984;43.508;1.504;2022-08-25T02:20:24;4.72;;;1.83;;
34765;SDS011;20984;43.508;1.504;2022-08-25T02:22:50;4.10;;;1.48;;
34765;SDS011;20984;43.508;1.504;2022-08-25T02:25:17;3.65;;;2.30;;
34765;SDS011;20984;43.508;1.504;2022-08-25T02:27:45;7.18;;;1.92;;
34765;SDS011;20984;43.508;1.504;2022-08-25T02:30:14;6.15;;;2.30;;
34765;SDS011;20984;43.508;1.504;2022-08-25T02:32:41;9.83;;;3.00;;
34765;SDS011;20984;43.508;1.504;2022-08-25T02:35:07;3.38;;;1.88;;
34765;SDS011;20984;43.508;1.504;2022-08-25T02:37:33;3.47;;;2.25;;
34765;SDS011;20984;43.508;1.504;2022-08-25T02:40:00;5.70;;;2.22;;
34765;SDS011;20984;43.508;1.504;2022-08-25T02:42:26;8.55;;;2.33;;
34765;SDS011;20984;43.508;1.504;2022-08-25T02:44:52;3.92;;;2.42;;
34765;SDS011;20984;43.508;1.504;2022-08-25T02:47:18;7.82;;;2.28;;
34765;SDS011;20984;43.508;1.504;2022-08-25T02:49:45;6.25;;;2.20;;
34765;SDS011;20984;43.508;1.504;2022-08-25T02:52:12;10.63;;;2.45;;
34765;SDS011;20984;43.508;1.504;2022-08-25T02:54:38;6.78;;;2.88;;
34765;SDS011;20984;43.508;1.504;2022-08-25T02:57:05;5.57;;;2.63;;
34765;SDS011;20984;43.508;1.504;2022-08-25T02:59:31;7.63;;;2.60;;
34765;SDS011;20984;43.508;1.504;2022-08-25T03:01:56;8.05;;;3.75;;
34765;SDS011;20984;43.508;1.504;2022-08-25T03:04:22;12.70;;;3.45;;
34765;SDS011;20984;43.508;1.504;2022-08-25T03:06:48;7.15;;;3.80;;
34765;SDS011;20984;43.508;1.504;2022-08-25T03:09:14;9.82;;;3.88;;
34765;SDS011;20984;43.508;1.504;2022-08-25T03:11:40;10.27;;;3.55;;
34765;SDS011;20984;43.508;1.504;2022-08-25T03:14:07;8.27;;;4.32;;
34765;SDS011;20984;43.508;1.504;2022-08-25T03:16:35;10.85;;;4.20;;
34765;SDS011;20984;43.508;1.504;2022-08-25T03:19:01;8.50;;;3.78;;
34765;SDS011;20984;43.508;1.504;2022-08-25T03:21:28;9.00;;;3.90;;
34765;SDS011;20984;43.508;1.504;2022-08-25T03:23:54;8.55;;;4.35;;
34765;SDS011;20984;43.508;1.504;2022-08-25T03:26:21;10.20;;;3.85;;
34765;SDS011;20984;43.508;1.504;2022-08-25T03:29:06;8.77;;;4.60;;
34765;SDS011;20984;43.508;1.504;2022-08-25T03:31:33;6.22;;;3.85;;
34765;SDS011;20984;43.508;1.504;2022-08-25T03:33:59;6.57;;;3.75;;
34765;SDS011;20984;43.508;1.504;2022-08-25T03:36:25;5.20;;;3.25;;
34765;SDS011;20984;43.508;1.504;2022-08-25T03:38:52;12.35;;;4.47;;
34765;SDS011;20984;43.508;1.504;2022-08-25T03:41:19;8.02;;;3.15;;
34765;SDS011;20984;43.508;1.504;2022-08-25T03:43:48;8.15;;;3.85;;
34765;SDS011;20984;43.508;1.504;2022-08-25T03:46:15;7.68;;;4.05;;
34765;SDS011;20984;43.508;1.504;2022-08-25T03:48:43;6.03;;;3.65;;
34765;SDS011;20984;43.508;1.504;2022-08-25T03:51:09;5.82;;;3.63;;
34765;SDS011;20984;43.508;1.504;2022-08-25T03:53:35;8.75;;;3.45;;
34765;SDS011;20984;43.508;1.504;2022-08-25T03:56:01;9.95;;;4.10;;
34765;SDS011;20984;43.508;1.504;2022-08-25T03:58:27;7.30;;;3.47;;
34765;SDS011;20984;43.508;1.504;2022-08-25T04:00:52;7.35;;;3.45;;
34765;SDS011;20984;43.508;1.504;2022-08-25T04:03:18;10.75;;;3.55;;
34765;SDS011;20984;43.508;1.504;2022-08-25T04:05:44;8.18;;;3.47;;
34765;SDS011;20984;43.508;1.504;2022-08-25T04:08:11;6.70;;;3.33;;
34765;SDS011;20984;43.508;1.504;2022-08-25T04:10:37;10.93;;;3.63;;
34765;SDS011;20984;43.508;1.504;2022-08-25T04:13:02;9.35;;;3.47;;
34765;SDS011;20984;43.508;1.504;2022-08-25T04:15:28;8.50;;;3.70;;
34765;SDS011;20984;43.508;1.504;2022-08-25T04:17:54;7.88;;;3.50;;
34765;SDS011;20984;43.508;1.504;2022-08-25T04:20:20;10.07;;;3.40;;
34765;SDS011;20984;43.508;1.504;2022-08-25T04:22:46;7.93;;;3.25;;
34765;SDS011;20984;43.508;1.504;2022-08-25T04:25:12;5.05;;;3.28;;
34765;SDS011;20984;43.508;1.504;2022-08-25T04:27:38;5.53;;;3.45;;
34765;SDS011;20984;43.508;1.504;2022-08-25T04:30:04;9.88;;;4.22;;
34765;SDS011;20984;43.508;1.504;2022-08-25T04:32:31;7.35;;;3.47;;
34765;SDS011;20984;43.508;1.504;2022-08-25T04:34:56;11.00;;;3.03;;
34765;SDS011;20984;43.508;1.504;2022-08-25T04:37:23;6.10;;;3.15;;
34765;SDS011;20984;43.508;1.504;2022-08-25T04:39:48;9.48;;;4.10;;
34765;SDS011;20984;43.508;1.504;2022-08-25T04:42:14;6.97;;;3.28;;
34765;SDS011;20984;43.508;1.504;2022-08-25T04:44:40;14.23;;;3.38;;
34765;SDS011;20984;43.508;1.504;2022-08-25T04:47:06;6.93;;;3.53;;
34765;SDS011;20984;43.508;1.504;2022-08-25T04:49:32;8.65;;;3.28;;
34765;SDS011;20984;43.508;1.504;2022-08-25T04:51:57;7.95;;;3.38;;
34765;SDS011;20984;43.508;1.504;2022-08-25T04:54:24;14.77;;;3.70;;
34765;SDS011;20984;43.508;1.504;2022-08-25T04:56:50;7.28;;;3.65;;
34765;SDS011;20984;43.508;1.504;2022-08-25T04:59:17;13.30;;;3.95;;
34765;SDS011;20984;43.508;1.504;2022-08-25T05:01:43;6.60;;;3.40;;
34765;SDS011;20984;43.508;1.504;2022-08-25T05:04:11;11.02;;;3.95;;
34765;SDS011;20984;43.508;1.504;2022-08-25T05:06:39;7.38;;;3.75;;
34765;SDS011;20984;43.508;1.504;2022-08-25T05:09:06;10.23;;;4.55;;
34765;SDS011;20984;43.508;1.504;2022-08-25T05:11:32;6.75;;;4.10;;
34765;SDS011;20984;43.508;1.504;2022-08-25T05:13:59;11.13;;;3.90;;
34765;SDS011;20984;43.508;1.504;2022-08-25T05:16:26;8.02;;;4.57;;
34765;SDS011;20984;43.508;1.504;2022-08-25T05:18:53;10.52;;;4.50;;
34765;SDS011;20984;43.508;1.504;2022-08-25T05:21:20;6.03;;;3.97;;
34765;SDS011;20984;43.508;1.504;2022-08-25T05:23:49;8.40;;;3.88;;
34765;SDS011;20984;43.508;1.504;2022-08-25T05:26:19;7.13;;;3.88;;
34765;SDS011;20984;43.508;1.504;2022-08-25T05:28:46;16.23;;;4.78;;
34765;SDS011;20984;43.508;1.504;2022-08-25T05:31:14;9.75;;;4.57;;
34765;SDS011;20984;43.508;1.504;2022-08-25T05:33:41;8.27;;;4.05;;
34765;SDS011;20984;43.508;1.504;2022-08-25T05:36:08;5.80;;;4.50;;
34765;SDS011;20984;43.508;1.504;2022-08-25T05:38:36;11.65;;;4.57;;
34765;SDS011;20984;43.508;1.504;2022-08-25T05:41:05;11.90;;;4.88;;
34765;SDS011;20984;43.508;1.504;2022-08-25T05:43:36;11.00;;;4.13;;
34765;SDS011;20984;43.508;1.504;2022-08-25T05:46:03;9.20;;;3.85;;
34765;SDS011;20984;43.508;1.504;2022-08-25T05:48:30;8.02;;;4.43;;
34765;SDS011;20984;43.508;1.504;2022-08-25T05:50:57;8.23;;;4.72;;
34765;SDS011;20984;43.508;1.504;2022-08-25T05:53:25;7.10;;;4.20;;
34765;SDS011;20984;43.508;1.504;2022-08-25T05:55:53;9.05;;;4.47;;
34765;SDS011;20984;43.508;1.504;2022-08-25T05:58:21;8.25;;;4.78;;
34765;SDS011;20984;43.508;1.504;2022-08-25T06:00:48;11.85;;;5.03;;
34765;SDS011;20984;43.508;1.504;2022-08-25T06:03:15;8.75;;;4.47;;
34765;SDS011;20984;43.508;1.504;2022-08-25T06:05:41;11.38;;;5.38;;
34765;SDS011;20984;43.508;1.504;2022-08-25T06:08:07;8.60;;;4.53;;
34765;SDS011;20984;43.508;1.504;2022-08-25T06:10:34;8.10;;;5.35;;
34765;SDS011;20984;43.508;1.504;2022-08-25T06:13:00;9.27;;;5.68;;
34765;SDS011;20984;43.508;1.504;2022-08-25T06:15:26;8.00;;;4.85;;
34765;SDS011;20984;43.508;1.504;2022-08-25T06:17:52;9.55;;;5.13;;
34765;SDS011;20984;43.508;1.504;2022-08-25T06:20:21;10.52;;;5.20;;
34765;SDS011;20984;43.508;1.504;2022-08-25T06:22:49;13.65;;;5.35;;
34765;SDS011;20984;43.508;1.504;2022-08-25T06:25:17;10.25;;;4.75;;
34765;SDS011;20984;43.508;1.504;2022-08-25T06:27:44;13.00;;;5.78;;
34765;SDS011;20984;43.508;1.504;2022-08-25T06:30:12;7.80;;;5.25;;
34765;SDS011;20984;43.508;1.504;2022-08-25T06:32:44;11.63;;;5.32;;
34765;SDS011;20984;43.508;1.504;2022-08-25T06:35:11;11.65;;;5.93;;
34765;SDS011;20984;43.508;1.504;2022-08-25T06:40:07;9.75;;;5.38;;
34765;SDS011;20984;43.508;1.504;2022-08-25T06:42:35;8.07;;;5.25;;
34765;SDS011;20984;43.508;1.504;2022-08-25T06:45:02;7.45;;;5.22;;
34765;SDS011;20984;43.508;1.504;2022-08-25T06:47:28;9.18;;;5.13;;
34765;SDS011;20984;43.508;1.504;2022-08-25T06:49:54;8.38;;;4.95;;
34765;SDS011;20984;43.508;1.504;2022-08-25T06:52:20;7.28;;;4.85;;
34765;SDS011;20984;43.508;1.504;2022-08-25T06:54:45;6.82;;;4.93;;
34765;SDS011;20984;43.508;1.504;2022-08-25T06:57:12;7.47;;;5.38;;
34765;SDS011;20984;43.508;1.504;2022-08-25T06:59:38;9.57;;;5.90;;
34765;SDS011;20984;43.508;1.504;2022-08-25T07:02:04;13.95;;;5.82;;
34765;SDS011;20984;43.508;1.504;2022-08-25T07:04:32;9.32;;;5.07;;
34765;SDS011;20984;43.508;1.504;2022-08-25T07:06:58;11.43;;;5.28;;
34765;SDS011;20984;43.508;1.504;2022-08-25T07:09:25;10.13;;;5.57;;
34765;SDS011;20984;43.508;1.504;2022-08-25T07:11:51;8.82;;;4.68;;
34765;SDS011;20984;43.508;1.504;2022-08-25T07:14:18;9.23;;;4.85;;
34765;SDS011;20984;43.508;1.504;2022-08-25T07:16:44;13.38;;;5.50;;
34765;SDS011;20984;43.508;1.504;2022-08-25T07:19:10;6.35;;;4.22;;
34765;SDS011;20984;43.508;1.504;2022-08-25T07:21:37;6.95;;;4.80;;
34765;SDS011;20984;43.508;1.504;2022-08-25T07:24:05;11.23;;;5.50;;
34765;SDS011;20984;43.508;1.504;2022-08-25T07:26:34;14.45;;;5.50;;
34765;SDS011;20984;43.508;1.504;2022-08-25T07:29:06;6.53;;;4.25;;
34765;SDS011;20984;43.508;1.504;2022-08-25T07:31:34;8.20;;;4.95;;
34765;SDS011;20984;43.508;1.504;2022-08-25T07:33:59;10.38;;;4.85;;
34765;SDS011;20984;43.508;1.504;2022-08-25T07:36:44;7.10;;;4.97;;
34765;SDS011;20984;43.508;1.504;2022-08-25T07:39:10;9.30;;;5.20;;
34765;SDS011;20984;43.508;1.504;2022-08-25T07:41:38;12.80;;;5.78;;
34765;SDS011;20984;43.508;1.504;2022-08-25T07:44:06;10.27;;;5.85;;
34765;SDS011;20984;43.508;1.504;2022-08-25T07:46:34;6.45;;;4.70;;
34765;SDS011;20984;43.508;1.504;2022-08-25T07:49:00;12.10;;;5.63;;
34765;SDS011;20984;43.508;1.504;2022-08-25T07:51:26;9.75;;;5.70;;
34765;SDS011;20984;43.508;1.504;2022-08-25T07:53:52;11.63;;;5.55;;
34765;SDS011;20984;43.508;1.504;2022-08-25T07:56:17;12.73;;;6.00;;
34765;SDS011;20984;43.508;1.504;2022-08-25T07:58:44;14.73;;;5.30;;
34765;SDS011;20984;43.508;1.504;2022-08-25T08:01:14;9.77;;;5.63;;
34765;SDS011;20984;43.508;1.504;2022-08-25T08:03:42;9.70;;;5.53;;
34765;SDS011;20984;43.508;1.504;2022-08-25T08:06:09;12.18;;;6.00;;
34765;SDS011;20984;43.508;1.504;2022-08-25T08:08:37;9.75;;;5.07;;
34765;SDS011;20984;43.508;1.504;2022-08-25T08:13:58;11.90;;;5.55;;
34765;SDS011;20984;43.508;1.504;2022-08-25T08:16:26;12.27;;;5.55;;
34765;SDS011;20984;43.508;1.504;2022-08-25T08:18:54;10.07;;;5.60;;
34765;SDS011;20984;43.508;1.504;2022-08-25T08:21:23;10.02;;;5.95;;
34765;SDS011;20984;43.508;1.504;2022-08-25T08:23:51;14.63;;;5.60;;
34765;SDS011;20984;43.508;1.504;2022-08-25T08:26:18;8.43;;;4.88;;
34765;SDS011;20984;43.508;1.504;2022-08-25T08:28:45;6.32;;;5.07;;
34765;SDS011;20984;43.508;1.504;2022-08-25T08:31:11;8.43;;;5.30;;
34765;SDS011;20984;43.508;1.504;2022-08-25T08:33:37;12.75;;;6.10;;
34765;SDS011;20984;43.508;1.504;2022-08-25T08:36:07;10.93;;;5.43;;
34765;SDS011;20984;43.508;1.504;2022-08-25T08:38:36;11.88;;;5.30;;
34765;SDS011;20984;43.508;1.504;2022-08-25T08:47:24;14.70;;;5.68;;
34765;SDS011;20984;43.508;1.504;2022-08-25T08:49:34;10.68;;;4.85;;
34765;SDS011;20984;43.508;1.504;2022-08-25T08:52:23;10.70;;;5.60;;
34765;SDS011;20984;43.508;1.504;2022-08-25T08:55:12;10.38;;;5.88;;
34765;SDS011;20984;43.508;1.504;2022-08-25T08:58:02;11.63;;;5.90;;
34765;SDS011;20984;43.508;1.504;2022-08-25T09:00:32;10.60;;;5.53;;
34765;SDS011;20984;43.508;1.504;2022-08-25T09:03:09;11.30;;;5.63;;
34765;SDS011;20984;43.508;1.504;2022-08-25T09:05:46;10.45;;;4.78;;
34765;SDS011;20984;43.508;1.504;2022-08-25T09:08:14;9.07;;;5.30;;
34765;SDS011;20984;43.508;1.504;2022-08-25T09:10:49;10.95;;;5.38;;
34765;SDS011;20984;43.508;1.504;2022-08-25T09:18:43;12.23;;;4.70;;
34765;SDS011;20984;43.508;1.504;2022-08-25T09:21:15;8.93;;;4.82;;
34765;SDS011;20984;43.508;1.504;2022-08-25T09:26:50;8.77;;;3.92;;
34765;SDS011;20984;43.508;1.504;2022-08-25T09:29:49;7.85;;;4.50;;
34765;SDS011;20984;43.508;1.504;2022-08-25T09:32:17;8.73;;;4.47;;
34765;SDS011;20984;43.508;1.504;2022-08-25T09:34:43;7.07;;;4.45;;
34765;SDS011;20984;43.508;1.504;2022-08-25T09:37:11;10.30;;;4.57;;
34765;SDS011;20984;43.508;1.504;2022-08-25T09:39:37;10.35;;;4.88;;
34765;SDS011;20984;43.508;1.504;2022-08-25T09:42:03;7.78;;;4.80;;
34765;SDS011;20984;43.508;1.504;2022-08-25T09:44:39;8.80;;;4.20;;
34765;SDS011;20984;43.508;1.504;2022-08-25T09:49:46;10.52;;;4.53;;
34765;SDS011;20984;43.508;1.504;2022-08-25T09:52:36;8.65;;;3.70;;
34765;SDS011;20984;43.508;1.504;2022-08-25T09:57:48;9.65;;;4.00;;
34765;SDS011;20984;43.508;1.504;2022-08-25T10:00:19;8.82;;;3.92;;
34765;SDS011;20984;43.508;1.504;2022-08-25T10:03:03;8.30;;;4.68;;
34765;SDS011;20984;43.508;1.504;2022-08-25T10:05:37;9.38;;;4.10;;
34765;SDS011;20984;43.508;1.504;2022-08-25T10:08:31;8.90;;;3.72;;
34765;SDS011;20984;43.508;1.504;2022-08-25T10:11:05;9.60;;;4.53;;
34765;SDS011;20984;43.508;1.504;2022-08-25T10:13:36;10.35;;;4.05;;
34765;SDS011;20984;43.508;1.504;2022-08-25T10:16:09;16.30;;;4.32;;
34765;SDS011;20984;43.508;1.504;2022-08-25T10:19:03;9.18;;;3.20;;
34765;SDS011;20984;43.508;1.504;2022-08-25T10:21:33;10.57;;;4.00;;
34765;SDS011;20984;43.508;1.504;2022-08-25T10:24:04;9.13;;;3.75;;
34765;SDS011;20984;43.508;1.504;2022-08-25T10:26:33;9.25;;;3.65;;
34765;SDS011;20984;43.508;1.504;2022-08-25T10:32:00;10.57;;;3.90;;
34765;SDS011;20984;43.508;1.504;2022-08-25T10:34:52;11.70;;;3.95;;
34765;SDS011;20984;43.508;1.504;2022-08-25T10:42:48;9.40;;;3.25;;
34765;SDS011;20984;43.508;1.504;2022-08-25T10:45:27;8.68;;;3.28;;
34765;SDS011;20984;43.508;1.504;2022-08-25T10:59:19;8.45;;;4.25;;
34765;SDS011;20984;43.508;1.504;2022-08-25T11:05:16;9.07;;;3.78;;
34765;SDS011;20984;43.508;1.504;2022-08-25T11:07:45;10.80;;;4.35;;
34765;SDS011;20984;43.508;1.504;2022-08-25T11:12:49;10.07;;;4.35;;
34765;SDS011;20984;43.508;1.504;2022-08-25T11:15:22;16.05;;;4.65;;
34765;SDS011;20984;43.508;1.504;2022-08-25T11:18:02;14.05;;;3.85;;
34765;SDS011;20984;43.508;1.504;2022-08-25T11:20:35;8.60;;;4.20;;
34765;SDS011;20984;43.508;1.504;2022-08-25T11:25:33;9.75;;;3.72;;
34765;SDS011;20984;43.508;1.504;2022-08-25T11:28:05;10.43;;;5.13;;
34765;SDS011;20984;43.508;1.504;2022-08-25T11:30:45;14.10;;;4.78;;
34765;SDS011;20984;43.508;1.504;2022-08-25T11:33:15;18.35;;;4.38;;
34765;SDS011;20984;43.508;1.504;2022-08-25T11:35:46;10.77;;;4.07;;
34765;SDS011;20984;43.508;1.504;2022-08-25T11:47:03;12.98;;;3.90;;
34765;SDS011;20984;43.508;1.504;2022-08-25T11:49:54;9.93;;;3.70;;
34765;SDS011;20984;43.508;1.504;2022-08-25T11:55:14;15.32;;;3.38;;
34765;SDS011;20984;43.508;1.504;2022-08-25T11:57:43;13.40;;;3.50;;
34765;SDS011;20984;43.508;1.504;2022-08-25T12:08:46;12.57;;;3.58;;
34765;SDS011;20984;43.508;1.504;2022-08-25T12:16:58;8.48;;;3.03;;
34765;SDS011;20984;43.508;1.504;2022-08-25T12:27:09;9.45;;;3.85;;
34765;SDS011;20984;43.508;1.504;2022-08-25T12:29:54;9.52;;;3.17;;
34765;SDS011;20984;43.508;1.504;2022-08-25T12:35:22;8.00;;;2.97;;
34765;SDS011;20984;43.508;1.504;2022-08-25T12:38:02;13.73;;;3.63;;
34765;SDS011;20984;43.508;1.504;2022-08-25T12:43:03;10.32;;;2.40;;
34765;SDS011;20984;43.508;1.504;2022-08-25T12:45:34;12.35;;;3.45;;
34765;SDS011;20984;43.508;1.504;2022-08-25T12:50:56;8.85;;;2.67;;
34765;SDS011;20984;43.508;1.504;2022-08-25T12:53:37;8.57;;;3.10;;
34765;SDS011;20984;43.508;1.504;2022-08-25T12:56:26;8.35;;;3.20;;
34765;SDS011;20984;43.508;1.504;2022-08-25T13:06:53;8.95;;;2.97;;
34765;SDS011;20984;43.508;1.504;2022-08-25T13:11:59;10.90;;;2.25;;
34765;SDS011;20984;43.508;1.504;2022-08-25T13:14:54;11.35;;;3.00;;
34765;SDS011;20984;43.508;1.504;2022-08-25T13:17:31;9.27;;;2.75;;
34765;SDS011;20984;43.508;1.504;2022-08-25T13:20:12;9.40;;;3.03;;
34765;SDS011;20984;43.508;1.504;2022-08-25T13:25:05;6.80;;;2.47;;
34765;SDS011;20984;43.508;1.504;2022-08-25T13:27:32;10.63;;;3.13;;
34765;SDS011;20984;43.508;1.504;2022-08-25T13:29:59;15.52;;;3.13;;
34765;SDS011;20984;43.508;1.504;2022-08-25T13:32:28;14.32;;;2.90;;
34765;SDS011;20984;43.508;1.504;2022-08-25T13:35:11;7.65;;;2.40;;
34765;SDS011;20984;43.508;1.504;2022-08-25T13:37:41;6.13;;;2.05;;
34765;SDS011;20984;43.508;1.504;2022-08-25T13:42:48;13.07;;;3.28;;
34765;SDS011;20984;43.508;1.504;2022-08-25T13:45:18;11.45;;;2.58;;
34765;SDS011;20984;43.508;1.504;2022-08-25T13:47:46;11.80;;;2.65;;
34765;SDS011;20984;43.508;1.504;2022-08-25T13:53:03;6.70;;;2.58;;
34765;SDS011;20984;43.508;1.504;2022-08-25T13:55:50;9.38;;;2.42;;
34765;SDS011;20984;43.508;1.504;2022-08-25T13:58:31;13.90;;;2.90;;
34765;SDS011;20984;43.508;1.504;2022-08-25T14:01:12;8.63;;;2.53;;
34765;SDS011;20984;43.508;1.504;2022-08-25T14:03:53;6.85;;;2.92;;
34765;SDS011;20984;43.508;1.504;2022-08-25T14:06:25;10.77;;;2.65;;
34765;SDS011;20984;43.508;1.504;2022-08-25T14:11:27;5.25;;;2.63;;
34765;SDS011;20984;43.508;1.504;2022-08-25T14:14:05;6.32;;;2.63;;
34765;SDS011;20984;43.508;1.504;2022-08-25T14:16:37;10.45;;;2.90;;
34765;SDS011;20984;43.508;1.504;2022-08-25T14:19:15;11.50;;;3.17;;
34765;SDS011;20984;43.508;1.504;2022-08-25T14:21:43;8.52;;;2.70;;
34765;SDS011;20984;43.508;1.504;2022-08-25T14:24:10;5.70;;;2.17;;
34765;SDS011;20984;43.508;1.504;2022-08-25T14:26:42;6.45;;;2.00;;
34765;SDS011;20984;43.508;1.504;2022-08-25T14:29:09;6.55;;;2.17;;
34765;SDS011;20984;43.508;1.504;2022-08-25T14:31:40;5.97;;;2.08;;
34765;SDS011;20984;43.508;1.504;2022-08-25T14:34:12;7.80;;;2.70;;
34765;SDS011;20984;43.508;1.504;2022-08-25T14:36:43;8.85;;;2.33;;
34765;SDS011;20984;43.508;1.504;2022-08-25T14:39:10;6.45;;;2.03;;
34765;SDS011;20984;43.508;1.504;2022-08-25T14:41:37;7.05;;;2.38;;
34765;SDS011;20984;43.508;1.504;2022-08-25T14:44:05;6.97;;;1.95;;
34765;SDS011;20984;43.508;1.504;2022-08-25T14:46:33;5.53;;;2.60;;
34765;SDS011;20984;43.508;1.504;2022-08-25T14:49:05;9.38;;;2.85;;
34765;SDS011;20984;43.508;1.504;2022-08-25T14:51:34;7.00;;;2.28;;
34765;SDS011;20984;43.508;1.504;2022-08-25T14:54:04;6.38;;;2.50;;
34765;SDS011;20984;43.508;1.504;2022-08-25T14:56:34;9.68;;;2.97;;
34765;SDS011;20984;43.508;1.504;2022-08-25T14:59:00;7.28;;;2.97;;
34765;SDS011;20984;43.508;1.504;2022-08-25T15:01:27;10.98;;;3.58;;
34765;SDS011;20984;43.508;1.504;2022-08-25T15:03:57;7.72;;;2.60;;
34765;SDS011;20984;43.508;1.504;2022-08-25T15:06:28;6.38;;;2.38;;
34765;SDS011;20984;43.508;1.504;2022-08-25T15:08:54;8.02;;;2.17;;
34765;SDS011;20984;43.508;1.504;2022-08-25T15:11:43;10.45;;;2.75;;
34765;SDS011;20984;43.508;1.504;2022-08-25T15:14:14;10.68;;;2.35;;
34765;SDS011;20984;43.508;1.504;2022-08-25T15:16:51;4.38;;;1.83;;
34765;SDS011;20984;43.508;1.504;2022-08-25T15:19:20;5.00;;;2.40;;
34765;SDS011;20984;43.508;1.504;2022-08-25T15:21:50;5.50;;;2.10;;
34765;SDS011;20984;43.508;1.504;2022-08-25T15:24:16;5.90;;;2.08;;
34765;SDS011;20984;43.508;1.504;2022-08-25T15:26:53;10.35;;;2.78;;
34765;SDS011;20984;43.508;1.504;2022-08-25T15:31:51;5.35;;;2.10;;
34765;SDS011;20984;43.508;1.504;2022-08-25T15:34:17;5.57;;;2.30;;
34765;SDS011;20984;43.508;1.504;2022-08-25T15:36:43;4.22;;;1.80;;
34765;SDS011;20984;43.508;1.504;2022-08-25T15:39:09;6.15;;;2.30;;
34765;SDS011;20984;43.508;1.504;2022-08-25T15:41:35;3.65;;;1.70;;
34765;SDS011;20984;43.508;1.504;2022-08-25T15:44:02;6.43;;;1.90;;
34765;SDS011;20984;43.508;1.504;2022-08-25T15:46:30;6.18;;;1.98;;
34765;SDS011;20984;43.508;1.504;2022-08-25T15:48:58;3.63;;;1.50;;
34765;SDS011;20984;43.508;1.504;2022-08-25T15:51:27;3.85;;;1.75;;
34765;SDS011;20984;43.508;1.504;2022-08-25T15:53:53;6.00;;;1.83;;
34765;SDS011;20984;43.508;1.504;2022-08-25T15:56:20;4.15;;;1.40;;
34765;SDS011;20984;43.508;1.504;2022-08-25T15:58:47;6.53;;;1.70;;
34765;SDS011;20984;43.508;1.504;2022-08-25T16:01:20;4.38;;;2.00;;
34765;SDS011;20984;43.508;1.504;2022-08-25T16:03:47;2.80;;;1.80;;
34765;SDS011;20984;43.508;1.504;2022-08-25T16:06:13;5.30;;;1.75;;
34765;SDS011;20984;43.508;1.504;2022-08-25T16:08:39;2.50;;;1.25;;
34765;SDS011;20984;43.508;1.504;2022-08-25T16:11:13;4.10;;;1.80;;
34765;SDS011;20984;43.508;1.504;2022-08-25T16:13:59;4.85;;;1.60;;
34765;SDS011;20984;43.508;1.504;2022-08-25T16:16:26;4.82;;;1.23;;
34765;SDS011;20984;43.508;1.504;2022-08-25T16:18:54;6.07;;;1.77;;
34765;SDS011;20984;43.508;1.504;2022-08-25T16:21:21;3.88;;;1.48;;
34765;SDS011;20984;43.508;1.504;2022-08-25T16:26:21;5.25;;;1.40;;
34765;SDS011;20984;43.508;1.504;2022-08-25T16:28:47;5.20;;;1.30;;
34765;SDS011;20984;43.508;1.504;2022-08-25T16:31:13;6.45;;;2.08;;
34765;SDS011;20984;43.508;1.504;2022-08-25T16:33:40;6.50;;;1.77;;
34765;SDS011;20984;43.508;1.504;2022-08-25T16:36:09;4.97;;;1.42;;
34765;SDS011;20984;43.508;1.504;2022-08-25T16:38:38;2.55;;;1.42;;
34765;SDS011;20984;43.508;1.504;2022-08-25T16:41:08;3.47;;;1.30;;
34765;SDS011;20984;43.508;1.504;2022-08-25T16:43:37;4.22;;;1.55;;
34765;SDS011;20984;43.508;1.504;2022-08-25T16:46:05;2.88;;;1.27;;
34765;SDS011;20984;43.508;1.504;2022-08-25T16:48:33;2.83;;;1.38;;
34765;SDS011;20984;43.508;1.504;2022-08-25T16:51:03;6.57;;;2.85;;
34765;SDS011;20984;43.508;1.504;2022-08-25T16:53:37;4.78;;;1.80;;
34765;SDS011;20984;43.508;1.504;2022-08-25T16:56:22;2.65;;;1.23;;
34765;SDS011;20984;43.508;1.504;2022-08-25T16:58:56;3.03;;;1.33;;
34765;SDS011;20984;43.508;1.504;2022-08-25T17:01:23;3.50;;;1.33;;
34765;SDS011;20984;43.508;1.504;2022-08-25T17:03:51;2.33;;;1.20;;